Time;durP1;ratioP1;P1;durP2;ratioP2;P2;SDS_P1;SDS_P2;PMS_P1;PMS_P2;Temp;Humidity;BMP_temperature;BMP_pressure;BME280_temperature;BME280_humidity;BME280_pressure;Samples;Min_cycle;Max_cycle;Signal;HPM_P1;HPM_P2
2022/01/05 00:01:51;;;;;;;;;;;20.00;44.70;;;;;;5094895;28;20323;-60
2022/01/05 00:04:16;;;;;;;;;;;20.00;44.60;;;;;;5095107;28;20316;-59
2022/01/05 00:06:42;;;;;;;;;;;20.00;44.70;;;;;;5094888;28;20317;-59
2022/01/05 00:09:07;;;;;;;;;;;20.00;44.70;;;;;;5094635;28;20364;-59
2022/01/05 00:11:33;;;;;;;;;;;20.00;44.60;;;;;;5094714;28;19970;-60
2022/01/05 00:13:58;;;;;;;;;;;20.00;44.70;;;;;;5094591;28;19961;-60
2022/01/05 00:16:24;;;;;;;;;;;20.00;44.70;;;;;;5094715;28;20034;-60
2022/01/05 00:18:49;;;;;;;;;;;20.00;44.60;;;;;;5094482;28;19954;-60
2022/01/05 00:21:14;;;;;;;;;;;19.90;44.60;;;;;;5094462;28;19908;-60
2022/01/05 00:23:40;;;;;;;;;;;20.00;44.70;;;;;;5094592;28;19991;-60
2022/01/05 00:26:05;;;;;;;;;;;19.90;44.70;;;;;;5076164;28;19908;-59
2022/01/05 00:28:31;;;;;;;;;;;19.90;44.60;;;;;;5094339;28;19908;-60
2022/01/05 00:30:57;;;;;;;;;;;19.90;44.60;;;;;;5094514;28;20380;-59
2022/01/05 00:33:22;;;;;;;;;;;19.90;44.60;;;;;;5094494;28;19916;-60
2022/01/05 00:35:47;;;;;;;;;;;19.90;44.50;;;;;;5094483;28;20045;-60
2022/01/05 00:38:13;;;;;;;;;;;19.90;44.60;;;;;;5094233;28;19908;-59
2022/01/05 00:40:38;;;;;;;;;;;19.90;44.60;;;;;;5094121;28;20064;-59
2022/01/05 00:43:04;;;;;;;;;;;19.90;44.60;;;;;;5094038;28;19908;-59
2022/01/05 00:45:29;;;;;;;;;;;19.90;44.50;;;;;;5094193;28;19908;-60
2022/01/05 00:47:55;;;;;;;;;;;19.90;44.60;;;;;;5094047;28;19908;-60
2022/01/05 00:50:20;;;;;;;;;;;19.90;44.60;;;;;;5093926;28;19978;-60
2022/01/05 00:52:45;;;;;;;;;;;19.80;44.50;;;;;;5093997;28;19914;-60
2022/01/05 00:55:11;;;;;;;;;;;19.80;44.60;;;;;;5093989;28;20370;-59
2022/01/05 00:57:36;;;;;;;;;;;19.80;44.50;;;;;;5093696;28;19908;-60
2022/01/05 01:00:05;;;;;;;;;;;19.80;44.50;;;;;;5093797;28;19916;-59
2022/01/05 01:02:30;;;;;;;;;;;19.80;44.50;;;;;;5093672;28;19948;-60
2022/01/05 01:04:56;;;;;;;;;;;19.80;44.50;;;;;;5075719;28;19916;-59
2022/01/05 01:07:21;;;;;;;;;;;19.80;44.60;;;;;;5093628;28;19930;-60
2022/01/05 01:09:47;;;;;;;;;;;19.80;44.50;;;;;;5093614;28;19929;-60
2022/01/05 01:12:12;;;;;;;;;;;19.80;44.50;;;;;;5093704;28;19913;-59
2022/01/05 01:14:38;;;;;;;;;;;19.70;44.40;;;;;;5093680;28;19912;-60
2022/01/05 01:17:03;;;;;;;;;;;19.70;44.50;;;;;;5093635;28;20387;-60
2022/01/05 01:19:29;;;;;;;;;;;19.70;44.50;;;;;;5093602;28;19915;-60
2022/01/05 01:21:55;;;;;;;;;;;19.70;44.40;;;;;;5074803;28;19916;-60
2022/01/05 01:24:21;;;;;;;;;;;19.70;44.50;;;;;;5075384;28;19908;-60
2022/01/05 01:26:46;;;;;;;;;;;19.70;44.40;;;;;;5094012;28;20244;-60
2022/01/05 01:29:12;;;;;;;;;;;19.70;44.50;;;;;;5093540;28;19915;-60
2022/01/05 01:31:37;;;;;;;;;;;19.70;44.40;;;;;;5093389;28;19920;-60
2022/01/05 01:34:03;;;;;;;;;;;19.70;44.40;;;;;;5093440;28;19939;-60
2022/01/05 01:36:28;;;;;;;;;;;19.70;44.50;;;;;;5093446;28;19908;-60
2022/01/05 01:38:54;;;;;;;;;;;19.60;44.50;;;;;;5075374;28;19990;-60
2022/01/05 01:41:19;;;;;;;;;;;19.60;44.40;;;;;;5075236;28;20002;-60
2022/01/05 01:43:45;;;;;;;;;;;19.60;44.40;;;;;;5093383;28;19909;-61
2022/01/05 01:46:10;;;;;;;;;;;19.60;44.40;;;;;;5093443;28;20347;-60
2022/01/05 01:48:36;;;;;;;;;;;19.60;44.40;;;;;;5093289;28;19974;-60
2022/01/05 01:51:01;;;;;;;;;;;19.60;44.40;;;;;;5093167;28;19916;-60
2022/01/05 01:53:27;;;;;;;;;;;19.60;44.40;;;;;;5093312;28;19915;-60
2022/01/05 01:55:52;;;;;;;;;;;19.60;44.40;;;;;;5093391;28;19908;-60
2022/01/05 01:58:19;;;;;;;;;;;19.60;44.40;;;;;;5093001;28;19920;-60
2022/01/05 02:00:44;;;;;;;;;;;19.60;44.40;;;;;;5093365;28;19915;-60
2022/01/05 02:03:12;;;;;;;;;;;19.50;44.40;;;;;;5093440;28;19909;-60
2022/01/05 02:05:38;;;;;;;;;;;19.50;44.40;;;;;;5093140;28;19931;-60
2022/01/05 02:08:03;;;;;;;;;;;19.50;44.40;;;;;;5093353;28;20359;-59
2022/01/05 02:10:29;;;;;;;;;;;19.50;44.40;;;;;;5093153;28;19961;-59
2022/01/05 02:12:54;;;;;;;;;;;19.50;44.40;;;;;;5093353;28;20359;-59
2022/01/05 02:15:21;;;;;;;;;;;19.50;44.30;;;;;;5093003;28;20279;-59
2022/01/05 02:17:54;;;;;;;;;;;19.50;44.40;;;;;;5093067;28;20003;-59
2022/01/05 02:20:22;;;;;;;;;;;19.50;44.30;;;;;;5092940;28;19915;-59
2022/01/05 02:22:47;;;;;;;;;;;19.50;44.30;;;;;;5093245;28;19912;-59
2022/01/05 02:25:13;;;;;;;;;;;19.50;44.30;;;;;;5092913;28;19909;-59
2022/01/05 02:27:39;;;;;;;;;;;19.50;44.30;;;;;;5074745;28;20275;-59
2022/01/05 02:30:05;;;;;;;;;;;19.50;44.30;;;;;;5092802;28;20339;-59
2022/01/05 02:32:31;;;;;;;;;;;19.50;44.30;;;;;;5093144;28;19955;-59
2022/01/05 02:34:56;;;;;;;;;;;19.40;44.40;;;;;;5096673;28;20047;-59
2022/01/05 02:37:22;;;;;;;;;;;19.40;44.40;;;;;;5096813;28;19915;-60
2022/01/05 02:39:47;;;;;;;;;;;19.40;44.40;;;;;;5078224;28;19919;-59
2022/01/05 02:42:23;;;;;;;;;;;19.40;44.40;;;;;;5096578;28;19908;-59
2022/01/05 02:44:48;;;;;;;;;;;19.40;44.30;;;;;;5096416;28;20057;-59
2022/01/05 02:47:14;;;;;;;;;;;19.40;44.30;;;;;;5096299;28;20002;-59
2022/01/05 02:49:39;;;;;;;;;;;19.40;44.30;;;;;;5096269;28;19909;-59
2022/01/05 02:52:05;;;;;;;;;;;19.40;44.30;;;;;;5078022;28;19969;-59
2022/01/05 02:54:30;;;;;;;;;;;19.40;44.30;;;;;;5096179;28;19908;-60
2022/01/05 02:56:56;;;;;;;;;;;19.40;44.30;;;;;;5096091;28;19977;-59
2022/01/05 02:59:21;;;;;;;;;;;19.40;44.40;;;;;;5095986;28;20003;-59
2022/01/05 03:01:47;;;;;;;;;;;19.30;44.40;;;;;;5096061;28;19956;-60
2022/01/05 03:04:12;;;;;;;;;;;19.30;44.40;;;;;;5096673;28;19909;-59
2022/01/05 03:06:37;;;;;;;;;;;19.30;44.40;;;;;;5077863;28;19935;-59
2022/01/05 03:09:03;;;;;;;;;;;19.30;44.40;;;;;;5095935;28;19908;-60
2022/01/05 03:11:28;;;;;;;;;;;19.30;44.50;;;;;;5095997;28;20002;-59
2022/01/05 03:13:54;;;;;;;;;;;19.30;44.40;;;;;;5096121;28;19915;-59
2022/01/05 03:16:19;;;;;;;;;;;19.30;44.40;;;;;;5077687;28;19908;-60
2022/01/05 03:18:45;;;;;;;;;;;19.20;44.40;;;;;;5095830;28;19908;-59
2022/01/05 03:21:10;;;;;;;;;;;19.30;44.40;;;;;;5095705;28;20260;-59
2022/01/05 03:23:36;;;;;;;;;;;19.30;44.40;;;;;;5095898;28;19908;-60
2022/01/05 03:26:01;;;;;;;;;;;19.20;44.30;;;;;;5077589;28;19908;-59
2022/01/05 03:28:27;;;;;;;;;;;19.20;44.40;;;;;;5095841;28;20207;-60
2022/01/05 03:30:52;;;;;;;;;;;19.20;44.40;;;;;;5095456;28;20329;-59
2022/01/05 03:33:21;;;;;;;;;;;19.20;44.40;;;;;;5095764;28;19935;-59
2022/01/05 03:35:47;;;;;;;;;;;19.20;44.40;;;;;;5095529;28;19915;-59
2022/01/05 03:38:15;;;;;;;;;;;19.20;44.50;;;;;;5095852;28;20293;-59
2022/01/05 03:40:41;;;;;;;;;;;19.20;44.40;;;;;;5095367;28;20386;-60
2022/01/05 03:43:07;;;;;;;;;;;19.20;44.50;;;;;;5095322;28;20348;-59
2022/01/05 03:45:35;;;;;;;;;;;19.10;44.50;;;;;;5094597;28;19955;-59
2022/01/05 03:48:01;;;;;;;;;;;19.20;44.40;;;;;;5095197;28;20367;-59
2022/01/05 03:50:26;;;;;;;;;;;19.20;44.30;;;;;;5095115;28;19934;-60
2022/01/05 03:52:52;;;;;;;;;;;19.10;44.40;;;;;;5095359;28;20338;-60
2022/01/05 03:55:17;;;;;;;;;;;19.10;44.30;;;;;;5077078;28;19952;-60
2022/01/05 03:57:42;;;;;;;;;;;19.10;44.30;;;;;;5094882;28;19908;-60
2022/01/05 04:00:08;;;;;;;;;;;19.10;44.30;;;;;;5095263;28;19920;-59
2022/01/05 04:02:34;;;;;;;;;;;19.10;44.30;;;;;;5094972;28;19999;-59
2022/01/05 04:04:59;;;;;;;;;;;19.10;44.40;;;;;;5095160;28;19912;-60
2022/01/05 04:07:24;;;;;;;;;;;19.10;44.30;;;;;;5076716;28;19908;-60
2022/01/05 04:09:50;;;;;;;;;;;19.10;44.30;;;;;;5094758;28;19915;-60
2022/01/05 04:12:15;;;;;;;;;;;19.10;44.30;;;;;;5076929;28;19912;-59
2022/01/05 04:14:42;;;;;;;;;;;19.10;44.30;;;;;;5094759;28;19908;-59
2022/01/05 04:17:07;;;;;;;;;;;19.10;44.40;;;;;;5094667;28;19912;-59
2022/01/05 04:19:35;;;;;;;;;;;19.10;44.30;;;;;;5094649;28;19908;-59
2022/01/05 04:22:00;;;;;;;;;;;19.10;44.30;;;;;;5094565;28;19908;-59
2022/01/05 04:24:26;;;;;;;;;;;19.10;44.40;;;;;;5094528;28;19916;-60
2022/01/05 04:26:51;;;;;;;;;;;19.00;44.30;;;;;;5094534;28;19911;-60
2022/01/05 04:29:17;;;;;;;;;;;19.00;44.30;;;;;;5094416;28;19908;-59
2022/01/05 04:31:42;;;;;;;;;;;19.00;44.30;;;;;;5094331;28;20007;-59
2022/01/05 04:34:08;;;;;;;;;;;19.00;44.30;;;;;;5094375;28;19912;-59
2022/01/05 04:36:33;;;;;;;;;;;19.00;44.30;;;;;;5076256;28;20021;-59
2022/01/05 04:38:59;;;;;;;;;;;19.00;44.30;;;;;;5094446;28;19908;-60
2022/01/05 04:41:24;;;;;;;;;;;19.00;44.30;;;;;;5094232;28;19944;-60
2022/01/05 04:43:50;;;;;;;;;;;19.00;44.30;;;;;;5094192;28;19912;-59
2022/01/05 04:46:15;;;;;;;;;;;19.00;44.20;;;;;;5094400;28;19912;-59
2022/01/05 04:48:42;;;;;;;;;;;19.00;44.30;;;;;;5093896;28;20421;-59
2022/01/05 04:51:07;;;;;;;;;;;19.00;44.20;;;;;;5093909;28;19943;-60
2022/01/05 04:53:33;;;;;;;;;;;19.00;44.30;;;;;;5094231;28;19974;-59
2022/01/05 04:55:58;;;;;;;;;;;19.00;44.20;;;;;;5093309;28;19916;-59
2022/01/05 04:58:24;;;;;;;;;;;18.90;44.20;;;;;;5075361;28;19920;-60
2022/01/05 05:00:49;;;;;;;;;;;19.00;44.20;;;;;;5093899;28;19915;-60
2022/01/05 05:03:14;;;;;;;;;;;18.90;44.30;;;;;;5093923;28;19908;-59
2022/01/05 05:05:40;;;;;;;;;;;18.90;44.20;;;;;;5093857;28;20424;-60
2022/01/05 05:08:05;;;;;;;;;;;18.90;44.10;;;;;;5093861;28;20348;-59
2022/01/05 05:10:31;;;;;;;;;;;18.90;44.10;;;;;;5093709;28;20385;-60
2022/01/05 05:12:56;;;;;;;;;;;18.90;44.10;;;;;;5093871;28;20275;-59
2022/01/05 05:15:22;;;;;;;;;;;19.00;43.90;;;;;;5093624;28;19915;-60
2022/01/05 05:17:48;;;;;;;;;;;19.00;43.80;;;;;;5093731;28;19912;-59
2022/01/05 05:20:13;;;;;;;;;;;19.00;43.70;;;;;;5093545;28;19951;-60
2022/01/05 05:22:39;;;;;;;;;;;19.00;43.50;;;;;;5093604;28;19908;-60
2022/01/05 05:25:05;;;;;;;;;;;19.00;43.40;;;;;;5093851;28;19908;-60
2022/01/05 05:27:30;;;;;;;;;;;19.10;43.30;;;;;;5093499;28;19995;-59
2022/01/05 05:29:56;;;;;;;;;;;19.00;43.30;;;;;;5093731;28;20004;-59
2022/01/05 05:32:21;;;;;;;;;;;19.10;43.10;;;;;;5093484;28;20363;-59
2022/01/05 05:34:47;;;;;;;;;;;19.10;43.10;;;;;;5075596;28;19908;-59
2022/01/05 05:37:15;;;;;;;;;;;19.10;43.00;;;;;;5093629;28;19943;-59
2022/01/05 05:39:41;;;;;;;;;;;19.10;43.00;;;;;;5093443;28;20010;-60
2022/01/05 05:42:06;;;;;;;;;;;19.20;43.10;;;;;;5093683;28;20404;-59
2022/01/05 05:44:32;;;;;;;;;;;19.20;43.00;;;;;;5093359;28;19915;-59
2022/01/05 05:46:57;;;;;;;;;;;19.20;43.00;;;;;;5093370;28;19908;-59
2022/01/05 05:49:45;;;;;;;;;;;19.30;43.00;;;;;;5093340;28;20248;-59
2022/01/05 05:52:11;;;;;;;;;;;19.30;42.90;;;;;;5093328;28;19964;-59
2022/01/05 05:54:36;;;;;;;;;;;19.30;42.90;;;;;;5093240;28;19936;-59
2022/01/05 05:57:02;;;;;;;;;;;19.30;42.80;;;;;;5093433;28;19991;-59
2022/01/05 05:59:27;;;;;;;;;;;19.30;42.80;;;;;;5092976;28;19920;-59
2022/01/05 06:01:53;;;;;;;;;;;19.30;42.80;;;;;;5093106;28;19908;-60
2022/01/05 06:04:19;;;;;;;;;;;19.30;42.80;;;;;;5075172;28;19912;-60
2022/01/05 06:06:45;;;;;;;;;;;19.30;42.80;;;;;;5093342;28;19908;-59
2022/01/05 06:09:10;;;;;;;;;;;19.30;42.90;;;;;;5096436;28;19915;-60
2022/01/05 06:11:36;;;;;;;;;;;19.30;42.90;;;;;;5096949;28;19916;-59
2022/01/05 06:14:01;;;;;;;;;;;19.30;42.70;;;;;;5097081;28;19912;-59
2022/01/05 06:16:27;;;;;;;;;;;19.30;42.80;;;;;;5096883;28;20279;-60
2022/01/05 06:18:52;;;;;;;;;;;19.30;42.80;;;;;;5079073;28;19915;-59
2022/01/05 06:21:18;;;;;;;;;;;19.40;42.70;;;;;;5096869;28;20356;-60
2022/01/05 06:23:43;;;;;;;;;;;19.40;42.70;;;;;;5096868;28;20280;-59
2022/01/05 06:26:09;;;;;;;;;;;19.40;42.70;;;;;;5096832;28;19908;-59
2022/01/05 06:28:34;;;;;;;;;;;19.40;42.60;;;;;;5097022;28;19907;-60
2022/01/05 06:31:00;;;;;;;;;;;19.40;42.60;;;;;;5078396;28;19998;-59
2022/01/05 06:33:25;;;;;;;;;;;19.40;42.60;;;;;;5096425;28;19950;-59
2022/01/05 06:35:51;;;;;;;;;;;19.40;42.70;;;;;;5079175;28;19913;-59
2022/01/05 06:38:16;;;;;;;;;;;19.40;42.90;;;;;;5077405;28;19908;-59
2022/01/05 06:40:42;;;;;;;;;;;19.50;42.90;;;;;;5096531;28;19908;-60
2022/01/05 06:43:07;;;;;;;;;;;19.50;42.90;;;;;;5083497;28;19912;-60
2022/01/05 06:45:33;;;;;;;;;;;19.50;42.80;;;;;;5080128;28;19978;-59
2022/01/05 06:47:58;;;;;;;;;;;19.50;42.70;;;;;;5074978;28;19912;-59
2022/01/05 06:50:24;;;;;;;;;;;19.50;42.40;;;;;;5076968;28;20371;-60
2022/01/05 06:52:50;;;;;;;;;;;19.50;42.70;;;;;;5077141;28;19912;-60
2022/01/05 06:55:16;;;;;;;;;;;19.50;42.70;;;;;;5095082;28;19912;-60
2022/01/05 06:57:42;;;;;;;;;;;19.50;42.70;;;;;;5095156;28;19995;-60
2022/01/05 07:00:11;;;;;;;;;;;19.50;42.80;;;;;;5073478;28;19921;-60
2022/01/05 07:02:37;;;;;;;;;;;19.50;42.80;;;;;;5074940;28;20402;-60
2022/01/05 07:05:03;;;;;;;;;;;19.50;42.80;;;;;;5080232;28;19916;-59
2022/01/05 07:07:28;;;;;;;;;;;19.50;42.80;;;;;;5094839;28;20018;-59
2022/01/05 07:09:54;;;;;;;;;;;19.50;42.50;;;;;;5094597;28;20003;-59
2022/01/05 07:12:19;;;;;;;;;;;19.50;42.70;;;;;;5094811;28;19922;-59
2022/01/05 07:14:45;;;;;;;;;;;19.50;42.80;;;;;;5076144;28;19959;-59
2022/01/05 07:17:10;;;;;;;;;;;19.60;42.90;;;;;;5095020;28;19909;-60
2022/01/05 07:19:36;;;;;;;;;;;19.50;42.70;;;;;;5093412;28;19999;-59
2022/01/05 07:22:01;;;;;;;;;;;19.60;42.80;;;;;;5094075;28;20016;-59
2022/01/05 07:24:27;;;;;;;;;;;19.50;42.70;;;;;;5087287;28;20007;-59
2022/01/05 07:26:52;;;;;;;;;;;19.60;42.90;;;;;;5077285;28;19920;-59
2022/01/05 07:29:19;;;;;;;;;;;19.60;42.70;;;;;;5090816;28;20307;-59
2022/01/05 07:31:44;;;;;;;;;;;19.60;42.60;;;;;;5078717;28;19921;-59
2022/01/05 07:34:10;;;;;;;;;;;19.60;42.60;;;;;;5074176;28;19919;-58
2022/01/05 07:36:36;;;;;;;;;;;19.60;42.70;;;;;;5092508;28;19912;-59
2022/01/05 07:39:04;;;;;;;;;;;19.70;42.60;;;;;;5108321;28;20060;-58
2022/01/05 07:41:30;;;;;;;;;;;19.70;42.60;;;;;;5081241;28;19921;-57
2022/01/05 07:43:56;;;;;;;;;;;19.60;42.10;;;;;;5082278;28;19912;-57
2022/01/05 07:46:21;;;;;;;;;;;19.60;42.50;;;;;;5081605;28;20010;-58
2022/01/05 07:48:47;;;;;;;;;;;19.70;42.40;;;;;;5092190;28;19965;-58
2022/01/05 07:51:12;;;;;;;;;;;19.70;42.60;;;;;;5093661;28;19973;-56
2022/01/05 07:53:38;;;;;;;;;;;19.80;42.40;;;;;;5085427;28;19915;-59
2022/01/05 07:56:04;;;;;;;;;;;19.80;42.40;;;;;;5082854;28;20003;-57
2022/01/05 07:58:29;;;;;;;;;;;19.80;42.40;;;;;;5079319;28;19920;-57
2022/01/05 08:00:54;;;;;;;;;;;19.80;42.40;;;;;;5092413;28;19912;-58
2022/01/05 08:03:20;;;;;;;;;;;19.80;42.40;;;;;;5073525;28;19912;-58
2022/01/05 08:05:45;;;;;;;;;;;19.80;42.40;;;;;;5071197;28;19912;-58
2022/01/05 08:08:11;;;;;;;;;;;19.80;42.50;;;;;;5081961;28;19935;-58
2022/01/05 08:10:36;;;;;;;;;;;19.80;42.50;;;;;;5088252;28;19916;-57
2022/01/05 08:13:02;;;;;;;;;;;19.80;42.50;;;;;;5084673;28;19947;-57
2022/01/05 08:15:27;;;;;;;;;;;19.80;42.50;;;;;;5088779;28;19922;-58
2022/01/05 08:17:53;;;;;;;;;;;19.90;42.50;;;;;;5076224;28;19912;-57
2022/01/05 08:20:18;;;;;;;;;;;20.00;42.60;;;;;;5085644;28;19922;-58
2022/01/05 08:22:45;;;;;;;;;;;20.00;42.60;;;;;;5084582;28;20380;-57
2022/01/05 08:25:11;;;;;;;;;;;19.90;42.20;;;;;;5086973;28;20275;-58
2022/01/05 08:27:37;;;;;;;;;;;19.90;42.20;;;;;;5063657;28;19958;-58
2022/01/05 08:30:05;;;;;;;;;;;19.90;42.20;;;;;;5082962;28;20298;-57
2022/01/05 08:32:32;;;;;;;;;;;19.90;42.20;;;;;;5092799;28;20367;-56
2022/01/05 08:34:57;;;;;;;;;;;19.90;42.30;;;;;;5092511;28;20333;-59
2022/01/05 08:37:22;;;;;;;;;;;19.90;42.30;;;;;;5077877;28;19916;-57
2022/01/05 08:39:50;;;;;;;;;;;20.00;42.30;;;;;;5079318;28;19955;-57
2022/01/05 08:42:16;;;;;;;;;;;20.00;42.20;;;;;;5089541;28;19912;-57
2022/01/05 08:44:41;;;;;;;;;;;20.00;42.20;;;;;;5083877;28;20531;-57
2022/01/05 08:47:07;;;;;;;;;;;20.00;42.30;;;;;;5091593;28;19912;-57
2022/01/05 08:49:33;;;;;;;;;;;20.00;42.30;;;;;;5065438;28;19913;-59
2022/01/05 08:51:59;;;;;;;;;;;20.00;42.30;;;;;;5083860;28;19977;-58
2022/01/05 08:54:24;;;;;;;;;;;20.00;42.30;;;;;;5086681;28;19912;-57
2022/01/05 08:56:50;;;;;;;;;;;20.00;42.30;;;;;;5075013;28;19912;-58
2022/01/05 08:59:15;;;;;;;;;;;20.00;42.30;;;;;;5093360;28;19955;-57
2022/01/05 09:01:43;;;;;;;;;;;20.00;42.20;;;;;;5081524;28;19913;-57
2022/01/05 09:04:08;;;;;;;;;;;20.00;42.30;;;;;;5083558;28;19912;-57
2022/01/05 09:06:34;;;;;;;;;;;20.00;42.30;;;;;;5083797;28;20268;-57
2022/01/05 09:08:59;;;;;;;;;;;20.00;41.90;;;;;;5066941;28;20343;-57
2022/01/05 09:11:26;;;;;;;;;;;19.90;41.80;;;;;;5086990;28;19920;-58
2022/01/05 09:13:51;;;;;;;;;;;19.90;42.10;;;;;;5081243;28;20417;-58
2022/01/05 09:16:17;;;;;;;;;;;20.00;41.40;;;;;;5085310;28;19912;-58
2022/01/05 09:18:42;;;;;;;;;;;20.00;41.20;;;;;;5084271;28;20344;-58
2022/01/05 09:21:08;;;;;;;;;;;20.00;41.40;;;;;;5074720;28;19920;-57
2022/01/05 09:23:33;;;;;;;;;;;20.00;41.50;;;;;;5085973;28;19912;-57
2022/01/05 09:25:59;;;;;;;;;;;20.00;41.50;;;;;;5079237;28;20007;-58
2022/01/05 09:28:24;;;;;;;;;;;20.00;41.60;;;;;;5091926;28;19923;-58
2022/01/05 09:30:49;;;;;;;;;;;20.00;41.40;;;;;;5091980;28;20268;-57
2022/01/05 09:33:15;;;;;;;;;;;20.00;41.60;;;;;;5077890;28;20297;-56
2022/01/05 09:35:41;;;;;;;;;;;20.00;42.00;;;;;;5085537;28;19913;-58
2022/01/05 09:38:10;;;;;;;;;;;20.00;41.80;;;;;;5083069;28;19977;-57
2022/01/05 09:43:21;;;;;;;;;;;20.10;41.70;;;;;;5075231;28;19950;-57
2022/01/05 09:46:07;;;;;;;;;;;20.10;41.70;;;;;;5088173;28;19952;-57
2022/01/05 09:48:39;;;;;;;;;;;20.10;41.80;;;;;;5090237;28;20364;-57
2022/01/05 09:51:09;;;;;;;;;;;20.10;41.80;;;;;;5092061;28;19927;-57
2022/01/05 09:53:35;;;;;;;;;;;20.20;41.80;;;;;;5076965;28;20004;-55
2022/01/05 09:56:02;;;;;;;;;;;20.10;41.80;;;;;;5084345;28;19961;-58
2022/01/05 09:58:28;;;;;;;;;;;20.10;41.90;;;;;;5089615;28;20390;-57
2022/01/05 10:00:53;;;;;;;;;;;20.10;41.90;;;;;;5095105;28;19995;-55
2022/01/05 10:03:21;;;;;;;;;;;20.10;41.80;;;;;;5079579;28;19952;-57
2022/01/05 10:05:46;;;;;;;;;;;20.20;41.90;;;;;;5087794;28;19917;-57
2022/01/05 10:08:12;;;;;;;;;;;20.10;42.00;;;;;;5080437;28;19912;-58
2022/01/05 10:10:37;;;;;;;;;;;20.20;42.00;;;;;;5095721;28;20018;-55
2022/01/05 10:13:03;;;;;;;;;;;20.20;42.00;;;;;;5095811;28;19923;-55
2022/01/05 10:15:28;;;;;;;;;;;20.20;42.00;;;;;;5095623;28;20299;-57
2022/01/05 10:18:08;;;;;;;;;;;20.20;42.00;;;;;;5089706;28;19921;-57
2022/01/05 10:20:33;;;;;;;;;;;20.20;42.00;;;;;;5094828;28;19938;-55
2022/01/05 10:22:59;;;;;;;;;;;20.20;42.10;;;;;;5095455;28;19920;-57
2022/01/05 10:25:24;;;;;;;;;;;20.20;42.10;;;;;;5090751;28;20367;-57
2022/01/05 10:27:57;;;;;;;;;;;20.20;42.20;;;;;;5074836;28;20430;-56
2022/01/05 10:30:33;;;;;;;;;;;20.20;42.20;;;;;;5087949;28;20555;-57
2022/01/05 10:32:58;;;;;;;;;;;20.20;42.20;;;;;;5077907;28;19962;-55
2022/01/05 10:35:27;;;;;;;;;;;20.20;41.90;;;;;;5081087;28;19963;-56
2022/01/05 10:38:03;;;;;;;;;;;20.20;42.10;;;;;;5074986;28;20378;-57
2022/01/05 10:40:32;;;;;;;;;;;20.20;42.10;;;;;;5089094;28;19922;-57
2022/01/05 10:42:57;;;;;;;;;;;20.20;42.20;;;;;;5068203;28;20304;-56
2022/01/05 10:45:23;;;;;;;;;;;20.20;42.20;;;;;;5092957;28;20428;-57
2022/01/05 10:48:02;;;;;;;;;;;20.20;42.30;;;;;;5094304;28;20015;-57
2022/01/05 10:50:28;;;;;;;;;;;20.20;42.20;;;;;;5074941;28;20366;-57
2022/01/05 10:52:54;;;;;;;;;;;20.30;42.20;;;;;;5094589;28;19916;-57
2022/01/05 10:55:21;;;;;;;;;;;20.20;42.30;;;;;;5093234;28;19915;-55
2022/01/05 10:57:57;;;;;;;;;;;20.20;42.20;;;;;;5094569;28;19932;-58
2022/01/05 11:00:41;;;;;;;;;;;20.30;42.10;;;;;;5092861;28;19942;-58
2022/01/05 11:03:22;;;;;;;;;;;20.30;42.30;;;;;;5075123;28;21359;-57
2022/01/05 11:06:05;;;;;;;;;;;20.30;42.10;;;;;;5081256;28;19935;-57
2022/01/05 11:08:31;;;;;;;;;;;20.20;42.10;;;;;;5094473;28;19912;-57
2022/01/05 11:10:56;;;;;;;;;;;20.30;42.20;;;;;;5094229;28;19916;-58
2022/01/05 11:13:22;;;;;;;;;;;20.30;42.20;;;;;;5094357;28;20033;-58
2022/01/05 11:15:55;;;;;;;;;;;20.30;42.40;;;;;;5094504;28;20429;-57
2022/01/05 11:18:21;;;;;;;;;;;20.30;42.60;;;;;;5078214;28;20406;-57
2022/01/05 11:20:51;;;;;;;;;;;20.30;42.50;;;;;;5088215;28;19947;-56
2022/01/05 11:23:20;;;;;;;;;;;20.30;42.70;;;;;;5078208;28;19912;-58
2022/01/05 11:25:47;;;;;;;;;;;20.30;42.70;;;;;;5094179;28;19962;-56
2022/01/05 11:28:14;;;;;;;;;;;20.30;42.70;;;;;;5064855;28;19958;-57
2022/01/05 11:30:40;;;;;;;;;;;20.30;42.70;;;;;;5082650;28;19921;-57
2022/01/05 11:33:06;;;;;;;;;;;20.20;42.70;;;;;;5074323;28;20249;-56
2022/01/05 11:35:32;;;;;;;;;;;20.30;42.60;;;;;;5079958;28;20392;-55
2022/01/05 11:37:58;;;;;;;;;;;20.30;42.60;;;;;;5075377;28;19975;-57
2022/01/05 11:40:23;;;;;;;;;;;20.30;42.60;;;;;;5089170;28;19913;-57
2022/01/05 11:42:50;;;;;;;;;;;20.30;42.60;;;;;;5082403;28;20007;-57
2022/01/05 11:45:26;;;;;;;;;;;20.30;42.60;;;;;;5090219;28;20372;-56
2022/01/05 11:47:56;;;;;;;;;;;20.30;42.60;;;;;;5073813;28;19917;-61
2022/01/05 11:50:24;;;;;;;;;;;20.30;42.60;;;;;;5075063;28;20003;-57
2022/01/05 11:52:56;;;;;;;;;;;20.30;42.50;;;;;;5072183;28;19964;-56
2022/01/05 11:55:22;;;;;;;;;;;20.30;42.60;;;;;;5079904;28;20314;-57
2022/01/05 11:58:07;;;;;;;;;;;20.20;42.00;;;;;;5076328;28;19916;-56
2022/01/05 12:00:32;;;;;;;;;;;20.00;41.40;;;;;;5088313;28;19934;-56
2022/01/05 12:02:57;;;;;;;;;;;20.10;41.50;;;;;;5089828;28;20407;-57
2022/01/05 12:05:23;;;;;;;;;;;20.20;41.70;;;;;;5085413;28;19916;-57
2022/01/05 12:07:51;;;;;;;;;;;20.20;42.00;;;;;;5093399;28;19941;-57
2022/01/05 12:10:23;;;;;;;;;;;20.30;42.20;;;;;;5091720;28;19919;-56
2022/01/05 12:13:04;;;;;;;;;;;20.30;42.30;;;;;;5093434;28;19955;-57
2022/01/05 12:15:38;;;;;;;;;;;20.30;42.40;;;;;;5090884;28;19920;-57
2022/01/05 12:18:04;;;;;;;;;;;20.40;42.50;;;;;;5092833;28;19916;-55
2022/01/05 12:20:34;;;;;;;;;;;20.40;42.40;;;;;;5089937;28;19931;-55
2022/01/05 12:23:14;;;;;;;;;;;20.40;42.30;;;;;;5086985;28;19919;-56
2022/01/05 12:25:59;;;;;;;;;;;20.40;42.40;;;;;;5080801;28;19924;-56
2022/01/05 12:28:36;;;;;;;;;;;20.40;42.60;;;;;;5084346;28;19918;-56
2022/01/05 12:31:01;;;;;;;;;;;20.40;42.60;;;;;;5090912;28;20023;-56
2022/01/05 12:33:40;;;;;;;;;;;20.30;42.70;;;;;;5074507;28;19959;-57
2022/01/05 12:36:05;;;;;;;;;;;20.40;42.70;;;;;;5082894;28;19912;-55
2022/01/05 12:38:34;;;;;;;;;;;20.40;42.70;;;;;;5054976;28;19913;-56
2022/01/05 12:41:19;;;;;;;;;;;20.40;42.70;;;;;;5079840;28;19985;-55
2022/01/05 12:43:45;;;;;;;;;;;20.40;42.70;;;;;;5086459;28;20352;-57
2022/01/05 12:46:13;;;;;;;;;;;20.40;42.70;;;;;;5088859;28;20392;-54
2022/01/05 12:48:43;;;;;;;;;;;20.40;42.70;;;;;;5079232;28;20007;-59
2022/01/05 12:51:11;;;;;;;;;;;20.40;42.50;;;;;;5090969;28;19993;-57
2022/01/05 12:53:48;;;;;;;;;;;20.40;42.70;;;;;;5087411;28;20359;-55
2022/01/05 12:56:18;;;;;;;;;;;20.40;42.60;;;;;;5092237;28;19998;-56
2022/01/05 12:58:43;;;;;;;;;;;20.40;42.60;;;;;;5082398;28;20398;-57
2022/01/05 13:01:08;;;;;;;;;;;20.40;42.60;;;;;;5079522;28;19920;-57
2022/01/05 13:03:34;;;;;;;;;;;20.40;42.60;;;;;;5084783;28;19916;-54
2022/01/05 13:06:33;;;;;;;;;;;20.40;42.60;;;;;;5088125;28;20011;-56
2022/01/05 13:09:00;;;;;;;;;;;20.40;42.60;;;;;;5060001;28;19916;-57
2022/01/05 13:11:37;;;;;;;;;;;20.40;42.70;;;;;;5092242;28;19993;-55
2022/01/05 13:14:09;;;;;;;;;;;20.40;42.80;;;;;;5079373;28;19912;-56
2022/01/05 13:16:34;;;;;;;;;;;20.50;42.60;;;;;;5092126;28;20007;-57
2022/01/05 13:19:00;;;;;;;;;;;20.50;42.60;;;;;;5089644;28;19951;-56
2022/01/05 13:21:41;;;;;;;;;;;20.50;42.60;;;;;;5086256;28;19912;-57
2022/01/05 13:24:07;;;;;;;;;;;20.50;42.40;;;;;;5065337;28;19912;-54
2022/01/05 13:26:32;;;;;;;;;;;20.50;42.50;;;;;;5092505;28;19912;-57
2022/01/05 13:29:18;;;;;;;;;;;20.50;42.60;;;;;;5090139;28;19916;-57
2022/01/05 13:31:56;;;;;;;;;;;20.50;42.60;;;;;;5077944;28;19974;-56
2022/01/05 13:34:32;;;;;;;;;;;20.50;42.70;;;;;;5083648;28;19958;-56
2022/01/05 13:36:57;;;;;;;;;;;20.50;42.70;;;;;;5083692;28;19919;-58
2022/01/05 13:39:42;;;;;;;;;;;20.50;42.70;;;;;;5090961;28;20008;-57
2022/01/05 13:42:08;;;;;;;;;;;20.50;42.70;;;;;;5077167;28;19913;-57
2022/01/05 13:44:34;;;;;;;;;;;20.50;42.70;;;;;;5069926;28;19930;-57
2022/01/05 13:47:02;;;;;;;;;;;20.50;42.70;;;;;;5082457;28;19913;-57
2022/01/05 13:49:27;;;;;;;;;;;20.50;42.70;;;;;;5091445;28;20304;-57
2022/01/05 13:52:02;;;;;;;;;;;20.50;42.70;;;;;;5088305;28;19924;-58
2022/01/05 13:54:28;;;;;;;;;;;20.50;42.60;;;;;;5080872;28;19916;-58
2022/01/05 13:56:53;;;;;;;;;;;20.50;42.70;;;;;;5085382;28;19912;-58
2022/01/05 13:59:19;;;;;;;;;;;20.50;42.70;;;;;;5057328;28;19931;-58
2022/01/05 14:01:57;;;;;;;;;;;20.50;42.70;;;;;;5084682;28;19962;-58
2022/01/05 14:04:22;;;;;;;;;;;20.50;42.70;;;;;;5083423;28;19990;-58
2022/01/05 14:06:56;;;;;;;;;;;20.50;42.70;;;;;;5068395;28;19951;-58
2022/01/05 14:09:27;;;;;;;;;;;20.50;42.80;;;;;;5081717;28;19912;-55
2022/01/05 14:11:54;;;;;;;;;;;20.50;42.70;;;;;;5074346;28;19928;-55
2022/01/05 14:14:20;;;;;;;;;;;20.60;42.70;;;;;;5073639;28;19966;-55
2022/01/05 14:16:47;;;;;;;;;;;20.60;42.70;;;;;;5075999;28;19920;-54
2022/01/05 14:19:16;;;;;;;;;;;20.60;42.70;;;;;;5082822;28;19922;-54